sensor_id;sensor_type;location;lat;lon;timestamp;temperature;humidity
1429;DHT22;708;51.442;7.016;2023-07-13T00:00:08;19.00;1.00
1429;DHT22;708;51.442;7.016;2023-07-13T00:02:35;19.00;1.00
1429;DHT22;708;51.442;7.016;2023-07-13T00:05:02;19.00;1.00
1429;DHT22;708;51.442;7.016;2023-07-13T00:07:30;18.90;1.00
1429;DHT22;708;51.442;7.016;2023-07-13T00:09:57;18.90;1.00
1429;DHT22;708;51.442;7.016;2023-07-13T00:12:27;18.90;1.00
1429;DHT22;708;51.442;7.016;2023-07-13T00:14:55;18.80;1.00
1429;DHT22;708;51.442;7.016;2023-07-13T00:17:24;18.80;50.30
1429;DHT22;708;51.442;7.016;2023-07-13T00:19:51;18.80;1.00
1429;DHT22;708;51.442;7.016;2023-07-13T00:22:18;18.70;1.00
1429;DHT22;708;51.442;7.016;2023-07-13T00:24:45;18.70;99.90
1429;DHT22;708;51.442;7.016;2023-07-13T00:27:12;18.70;99.90
1429;DHT22;708;51.442;7.016;2023-07-13T00:29:39;18.60;5.10
1429;DHT22;708;51.442;7.016;2023-07-13T00:32:07;18.60;93.70
1429;DHT22;708;51.442;7.016;2023-07-13T00:34:36;18.60;99.90
1429;DHT22;708;51.442;7.016;2023-07-13T00:37:03;18.50;99.90
1429;DHT22;708;51.442;7.016;2023-07-13T00:39:32;18.50;99.90
1429;DHT22;708;51.442;7.016;2023-07-13T00:41:58;18.50;99.90
1429;DHT22;708;51.442;7.016;2023-07-13T00:44:25;18.50;99.90
1429;DHT22;708;51.442;7.016;2023-07-13T00:46:52;18.50;99.90
1429;DHT22;708;51.442;7.016;2023-07-13T00:49:23;18.50;99.90
1429;DHT22;708;51.442;7.016;2023-07-13T00:51:55;18.40;99.90
1429;DHT22;708;51.442;7.016;2023-07-13T00:54:26;18.40;99.90
1429;DHT22;708;51.442;7.016;2023-07-13T00:56:56;18.40;99.90
1429;DHT22;708;51.442;7.016;2023-07-13T00:59:24;18.40;99.90
1429;DHT22;708;51.442;7.016;2023-07-13T01:01:51;18.40;1.00
1429;DHT22;708;51.442;7.016;2023-07-13T01:06:46;18.30;1.00
1429;DHT22;708;51.442;7.016;2023-07-13T01:09:15;18.30;1.00
1429;DHT22;708;51.442;7.016;2023-07-13T01:11:43;18.30;1.00
1429;DHT22;708;51.442;7.016;2023-07-13T01:14:10;18.20;1.00
1429;DHT22;708;51.442;7.016;2023-07-13T01:16:38;18.20;1.00
1429;DHT22;708;51.442;7.016;2023-07-13T01:19:15;18.10;1.00
1429;DHT22;708;51.442;7.016;2023-07-13T01:21:44;18.10;1.00
1429;DHT22;708;51.442;7.016;2023-07-13T01:24:16;18.10;1.00
1429;DHT22;708;51.442;7.016;2023-07-13T01:26:43;18.00;1.00
1429;DHT22;708;51.442;7.016;2023-07-13T01:29:09;18.00;1.00
1429;DHT22;708;51.442;7.016;2023-07-13T01:31:36;18.00;1.00
1429;DHT22;708;51.442;7.016;2023-07-13T01:34:03;18.00;1.00
1429;DHT22;708;51.442;7.016;2023-07-13T01:36:32;18.00;1.00
1429;DHT22;708;51.442;7.016;2023-07-13T01:39:01;18.00;1.00
1429;DHT22;708;51.442;7.016;2023-07-13T01:41:28;17.90;1.00
1429;DHT22;708;51.442;7.016;2023-07-13T01:43:54;18.00;1.00
1429;DHT22;708;51.442;7.016;2023-07-13T01:46:21;17.90;1.00
1429;DHT22;708;51.442;7.016;2023-07-13T01:48:48;18.00;26.40
1429;DHT22;708;51.442;7.016;2023-07-13T01:51:15;18.00;2.20
1429;DHT22;708;51.442;7.016;2023-07-13T01:53:42;18.00;1.00
1429;DHT22;708;51.442;7.016;2023-07-13T01:56:10;17.90;24.70
1429;DHT22;708;51.442;7.016;2023-07-13T01:58:37;17.90;1.00
1429;DHT22;708;51.442;7.016;2023-07-13T02:01:04;17.90;1.00
1429;DHT22;708;51.442;7.016;2023-07-13T02:03:30;17.80;20.30
1429;DHT22;708;51.442;7.016;2023-07-13T02:05:57;17.80;97.60
1429;DHT22;708;51.442;7.016;2023-07-13T02:08:24;17.80;99.90
1429;DHT22;708;51.442;7.016;2023-07-13T02:10:51;17.80;99.90
1429;DHT22;708;51.442;7.016;2023-07-13T02:13:19;17.80;99.90
1429;DHT22;708;51.442;7.016;2023-07-13T02:15:46;17.80;99.90
1429;DHT22;708;51.442;7.016;2023-07-13T02:18:12;17.80;99.90
1429;DHT22;708;51.442;7.016;2023-07-13T02:20:42;17.80;99.90
1429;DHT22;708;51.442;7.016;2023-07-13T02:23:09;17.80;99.90
1429;DHT22;708;51.442;7.016;2023-07-13T02:25:36;17.80;99.90
1429;DHT22;708;51.442;7.016;2023-07-13T02:28:03;17.70;99.90
1429;DHT22;708;51.442;7.016;2023-07-13T02:30:31;17.70;99.90
1429;DHT22;708;51.442;7.016;2023-07-13T02:32:58;17.70;99.90
1429;DHT22;708;51.442;7.016;2023-07-13T02:35:24;17.60;99.90
1429;DHT22;708;51.442;7.016;2023-07-13T02:37:51;17.70;99.90
1429;DHT22;708;51.442;7.016;2023-07-13T02:40:18;17.60;17.30
1429;DHT22;708;51.442;7.016;2023-07-13T02:42:45;17.60;99.90
1429;DHT22;708;51.442;7.016;2023-07-13T02:45:12;17.60;89.00
1429;DHT22;708;51.442;7.016;2023-07-13T02:47:41;17.50;99.90
1429;DHT22;708;51.442;7.016;2023-07-13T02:50:08;17.50;99.90
1429;DHT22;708;51.442;7.016;2023-07-13T02:52:35;17.40;99.90
1429;DHT22;708;51.442;7.016;2023-07-13T02:55:02;17.50;99.90
1429;DHT22;708;51.442;7.016;2023-07-13T02:57:29;17.50;99.90
1429;DHT22;708;51.442;7.016;2023-07-13T02:59:58;17.40;99.90
1429;DHT22;708;51.442;7.016;2023-07-13T03:02:25;17.40;1.00
1429;DHT22;708;51.442;7.016;2023-07-13T03:04:55;17.40;99.90
1429;DHT22;708;51.442;7.016;2023-07-13T03:07:21;17.40;1.00
1429;DHT22;708;51.442;7.016;2023-07-13T03:09:48;17.40;1.00
1429;DHT22;708;51.442;7.016;2023-07-13T03:12:15;17.40;99.90
1429;DHT22;708;51.442;7.016;2023-07-13T03:14:42;17.40;99.90
1429;DHT22;708;51.442;7.016;2023-07-13T03:17:08;17.40;1.00
1429;DHT22;708;51.442;7.016;2023-07-13T03:19:35;17.40;1.00
1429;DHT22;708;51.442;7.016;2023-07-13T03:22:04;17.30;1.00
1429;DHT22;708;51.442;7.016;2023-07-13T03:24:32;17.30;99.90
1429;DHT22;708;51.442;7.016;2023-07-13T03:27:00;17.30;99.90
1429;DHT22;708;51.442;7.016;2023-07-13T03:29:27;17.30;99.90
1429;DHT22;708;51.442;7.016;2023-07-13T03:31:54;17.30;99.90
1429;DHT22;708;51.442;7.016;2023-07-13T03:34:20;17.30;1.00
1429;DHT22;708;51.442;7.016;2023-07-13T03:36:47;17.30;13.50
1429;DHT22;708;51.442;7.016;2023-07-13T03:39:15;17.30;14.40
1429;DHT22;708;51.442;7.016;2023-07-13T03:41:42;17.30;1.00
1429;DHT22;708;51.442;7.016;2023-07-13T03:44:09;17.30;1.00
1429;DHT22;708;51.442;7.016;2023-07-13T03:46:35;17.30;1.00
1429;DHT22;708;51.442;7.016;2023-07-13T03:49:04;17.30;82.40
1429;DHT22;708;51.442;7.016;2023-07-13T03:51:31;17.00;1.00
1429;DHT22;708;51.442;7.016;2023-07-13T03:53:58;17.50;1.00
1429;DHT22;708;51.442;7.016;2023-07-13T03:56:26;17.50;99.90
1429;DHT22;708;51.442;7.016;2023-07-13T03:58:53;17.60;17.60
1429;DHT22;708;51.442;7.016;2023-07-13T04:01:21;17.70;99.90
1429;DHT22;708;51.442;7.016;2023-07-13T04:03:49;17.90;99.90
1429;DHT22;708;51.442;7.016;2023-07-13T04:06:17;18.00;1.00
1429;DHT22;708;51.442;7.016;2023-07-13T04:08:47;18.00;1.00
1429;DHT22;708;51.442;7.016;2023-07-13T04:11:15;18.10;99.90
1429;DHT22;708;51.442;7.016;2023-07-13T04:13:44;18.10;99.90
1429;DHT22;708;51.442;7.016;2023-07-13T04:16:11;18.10;99.90
1429;DHT22;708;51.442;7.016;2023-07-13T04:18:38;18.10;99.90
1429;DHT22;708;51.442;7.016;2023-07-13T04:21:05;18.10;99.90
1429;DHT22;708;51.442;7.016;2023-07-13T04:23:32;18.10;99.90
1429;DHT22;708;51.442;7.016;2023-07-13T04:25:58;18.10;99.90
1429;DHT22;708;51.442;7.016;2023-07-13T04:28:26;18.10;99.90
1429;DHT22;708;51.442;7.016;2023-07-13T04:30:54;18.20;99.90
1429;DHT22;708;51.442;7.016;2023-07-13T04:33:21;18.20;99.90
1429;DHT22;708;51.442;7.016;2023-07-13T04:35:49;18.30;99.90
1429;DHT22;708;51.442;7.016;2023-07-13T04:38:22;18.50;6.80
1429;DHT22;708;51.442;7.016;2023-07-13T04:40:50;18.70;1.00
1429;DHT22;708;51.442;7.016;2023-07-13T04:43:17;18.80;99.90
1429;DHT22;708;51.442;7.016;2023-07-13T04:45:44;18.90;99.90
1429;DHT22;708;51.442;7.016;2023-07-13T04:48:12;19.00;67.30
1429;DHT22;708;51.442;7.016;2023-07-13T04:50:40;19.10;1.00
1429;DHT22;708;51.442;7.016;2023-07-13T04:53:06;19.20;1.00
1429;DHT22;708;51.442;7.016;2023-07-13T04:55:33;19.30;1.00
1429;DHT22;708;51.442;7.016;2023-07-13T04:58:00;19.40;99.90
1429;DHT22;708;51.442;7.016;2023-07-13T05:00:28;19.40;99.90
1429;DHT22;708;51.442;7.016;2023-07-13T05:02:56;19.50;99.90
1429;DHT22;708;51.442;7.016;2023-07-13T05:05:26;19.50;99.90
1429;DHT22;708;51.442;7.016;2023-07-13T05:07:53;19.60;99.90
1429;DHT22;708;51.442;7.016;2023-07-13T05:10:20;19.60;99.90
1429;DHT22;708;51.442;7.016;2023-07-13T05:12:47;19.70;99.90
1429;DHT22;708;51.442;7.016;2023-07-13T05:15:14;19.80;99.90
1429;DHT22;708;51.442;7.016;2023-07-13T05:17:41;20.00;99.90
1429;DHT22;708;51.442;7.016;2023-07-13T05:20:09;20.10;87.60
1429;DHT22;708;51.442;7.016;2023-07-13T05:22:37;20.20;1.00
1429;DHT22;708;51.442;7.016;2023-07-13T05:25:05;20.30;1.00
1429;DHT22;708;51.442;7.016;2023-07-13T05:27:32;20.40;1.00
1429;DHT22;708;51.442;7.016;2023-07-13T05:30:00;20.50;1.00
1429;DHT22;708;51.442;7.016;2023-07-13T05:32:26;20.70;1.00
1429;DHT22;708;51.442;7.016;2023-07-13T05:34:53;21.10;1.00
1429;DHT22;708;51.442;7.016;2023-07-13T05:37:20;21.90;99.90
1429;DHT22;708;51.442;7.016;2023-07-13T05:39:48;23.10;99.90
1429;DHT22;708;51.442;7.016;2023-07-13T05:42:15;24.10;99.90
1429;DHT22;708;51.442;7.016;2023-07-13T05:44:42;24.70;99.90
1429;DHT22;708;51.442;7.016;2023-07-13T05:47:08;25.40;99.90
1429;DHT22;708;51.442;7.016;2023-07-13T05:49:35;25.70;94.90
1429;DHT22;708;51.442;7.016;2023-07-13T05:52:02;25.70;84.70
1429;DHT22;708;51.442;7.016;2023-07-13T05:54:29;25.60;76.40
1429;DHT22;708;51.442;7.016;2023-07-13T05:56:57;25.40;76.70
1429;DHT22;708;51.442;7.016;2023-07-13T05:59:24;24.80;80.10
1429;DHT22;708;51.442;7.016;2023-07-13T06:01:51;25.00;81.70
1429;DHT22;708;51.442;7.016;2023-07-13T06:04:18;25.80;76.90
1429;DHT22;708;51.442;7.016;2023-07-13T06:06:45;26.90;61.00
1429;DHT22;708;51.442;7.016;2023-07-13T06:09:12;28.20;38.30
1429;DHT22;708;51.442;7.016;2023-07-13T06:11:39;28.80;23.00
1429;DHT22;708;51.442;7.016;2023-07-13T06:14:07;29.20;15.00
1429;DHT22;708;51.442;7.016;2023-07-13T06:16:34;29.80;9.90
1429;DHT22;708;51.442;7.016;2023-07-13T06:21:28;31.40;1.00
1429;DHT22;708;51.442;7.016;2023-07-13T06:23:55;32.20;1.00
1429;DHT22;708;51.442;7.016;2023-07-13T06:26:22;33.00;1.00
1429;DHT22;708;51.442;7.016;2023-07-13T06:31:17;33.90;1.00
1429;DHT22;708;51.442;7.016;2023-07-13T06:33:44;34.50;1.00
1429;DHT22;708;51.442;7.016;2023-07-13T06:36:11;34.90;1.00
1429;DHT22;708;51.442;7.016;2023-07-13T06:38:38;35.10;1.00
1429;DHT22;708;51.442;7.016;2023-07-13T06:41:06;35.20;1.00
1429;DHT22;708;51.442;7.016;2023-07-13T06:46:00;35.90;1.00
1429;DHT22;708;51.442;7.016;2023-07-13T06:48:28;36.00;1.00
1429;DHT22;708;51.442;7.016;2023-07-13T06:50:55;36.40;1.00
1429;DHT22;708;51.442;7.016;2023-07-13T06:53:23;36.40;1.00
1429;DHT22;708;51.442;7.016;2023-07-13T06:55:50;36.50;1.00
1429;DHT22;708;51.442;7.016;2023-07-13T06:58:19;36.80;1.00
1429;DHT22;708;51.442;7.016;2023-07-13T07:00:46;37.30;1.00
1429;DHT22;708;51.442;7.016;2023-07-13T07:03:16;37.20;1.00
1429;DHT22;708;51.442;7.016;2023-07-13T07:05:44;37.20;1.00
1429;DHT22;708;51.442;7.016;2023-07-13T07:08:11;37.40;1.00
1429;DHT22;708;51.442;7.016;2023-07-13T07:10:38;37.70;1.00
1429;DHT22;708;51.442;7.016;2023-07-13T07:13:04;37.80;1.00
1429;DHT22;708;51.442;7.016;2023-07-13T07:15:31;38.30;1.00
1429;DHT22;708;51.442;7.016;2023-07-13T07:17:58;39.00;1.00
1429;DHT22;708;51.442;7.016;2023-07-13T07:20:25;39.50;1.00
1429;DHT22;708;51.442;7.016;2023-07-13T07:22:53;39.80;1.00
1429;DHT22;708;51.442;7.016;2023-07-13T07:25:23;39.80;1.00
1429;DHT22;708;51.442;7.016;2023-07-13T07:27:50;40.00;1.00
1429;DHT22;708;51.442;7.016;2023-07-13T07:30:16;40.30;1.00
1429;DHT22;708;51.442;7.016;2023-07-13T07:32:43;39.90;1.00
1429;DHT22;708;51.442;7.016;2023-07-13T07:35:10;39.50;1.00
1429;DHT22;708;51.442;7.016;2023-07-13T07:37:36;38.80;1.00
1429;DHT22;708;51.442;7.016;2023-07-13T07:40:07;38.40;1.00
1429;DHT22;708;51.442;7.016;2023-07-13T07:42:34;38.60;1.00
1429;DHT22;708;51.442;7.016;2023-07-13T07:45:01;39.00;1.00
1429;DHT22;708;51.442;7.016;2023-07-13T07:47:27;39.20;1.00
1429;DHT22;708;51.442;7.016;2023-07-13T07:49:55;39.40;1.00
1429;DHT22;708;51.442;7.016;2023-07-13T07:52:21;39.50;1.00
1429;DHT22;708;51.442;7.016;2023-07-13T07:54:48;39.30;1.00
1429;DHT22;708;51.442;7.016;2023-07-13T07:57:16;39.20;1.00
1429;DHT22;708;51.442;7.016;2023-07-13T07:59:43;39.50;1.00
1429;DHT22;708;51.442;7.016;2023-07-13T08:02:10;39.60;1.00
1429;DHT22;708;51.442;7.016;2023-07-13T08:04:37;39.80;1.00
1429;DHT22;708;51.442;7.016;2023-07-13T08:07:05;39.60;1.00
1429;DHT22;708;51.442;7.016;2023-07-13T08:09:32;39.50;1.00
1429;DHT22;708;51.442;7.016;2023-07-13T08:11:59;39.80;1.00
1429;DHT22;708;51.442;7.016;2023-07-13T08:14:27;40.30;1.00
1429;DHT22;708;51.442;7.016;2023-07-13T08:16:53;40.30;1.00
1429;DHT22;708;51.442;7.016;2023-07-13T08:19:20;40.20;1.00
1429;DHT22;708;51.442;7.016;2023-07-13T08:21:47;40.00;1.00
1429;DHT22;708;51.442;7.016;2023-07-13T08:24:14;39.60;1.00
1429;DHT22;708;51.442;7.016;2023-07-13T08:26:44;39.00;1.00
1429;DHT22;708;51.442;7.016;2023-07-13T08:29:10;39.00;1.00
1429;DHT22;708;51.442;7.016;2023-07-13T08:31:38;39.40;1.00
1429;DHT22;708;51.442;7.016;2023-07-13T08:34:05;39.10;1.00
1429;DHT22;708;51.442;7.016;2023-07-13T08:36:32;38.60;1.00
1429;DHT22;708;51.442;7.016;2023-07-13T08:38:59;38.20;1.00
1429;DHT22;708;51.442;7.016;2023-07-13T08:41:26;38.20;1.00
1429;DHT22;708;51.442;7.016;2023-07-13T08:43:59;37.30;1.00
1429;DHT22;708;51.442;7.016;2023-07-13T08:46:29;37.20;1.00
1429;DHT22;708;51.442;7.016;2023-07-13T08:49:02;37.20;1.00
1429;DHT22;708;51.442;7.016;2023-07-13T08:51:35;37.40;1.00
1429;DHT22;708;51.442;7.016;2023-07-13T08:54:12;37.70;1.00
1429;DHT22;708;51.442;7.016;2023-07-13T08:56:42;38.10;1.00
1429;DHT22;708;51.442;7.016;2023-07-13T08:59:14;37.70;1.00
1429;DHT22;708;51.442;7.016;2023-07-13T09:01:53;37.30;1.00
1429;DHT22;708;51.442;7.016;2023-07-13T09:04:26;37.00;1.00
1429;DHT22;708;51.442;7.016;2023-07-13T09:07:00;36.70;1.00
1429;DHT22;708;51.442;7.016;2023-07-13T09:09:44;36.00;1.00
1429;DHT22;708;51.442;7.016;2023-07-13T09:12:16;35.40;1.00
1429;DHT22;708;51.442;7.016;2023-07-13T09:14:46;35.20;1.00
1429;DHT22;708;51.442;7.016;2023-07-13T09:17:18;35.30;1.00
1429;DHT22;708;51.442;7.016;2023-07-13T09:19:53;35.70;1.00
1429;DHT22;708;51.442;7.016;2023-07-13T09:22:22;35.80;1.00
1429;DHT22;708;51.442;7.016;2023-07-13T09:25:00;36.10;1.00
1429;DHT22;708;51.442;7.016;2023-07-13T09:27:30;35.20;1.00
1429;DHT22;708;51.442;7.016;2023-07-13T09:30:04;34.50;1.00
1429;DHT22;708;51.442;7.016;2023-07-13T09:32:35;33.80;1.00
1429;DHT22;708;51.442;7.016;2023-07-13T09:35:10;33.40;1.00
1429;DHT22;708;51.442;7.016;2023-07-13T09:37:37;33.00;1.00
1429;DHT22;708;51.442;7.016;2023-07-13T09:40:13;32.80;1.00
1429;DHT22;708;51.442;7.016;2023-07-13T09:42:42;33.00;1.00
1429;DHT22;708;51.442;7.016;2023-07-13T09:45:09;32.80;1.00
1429;DHT22;708;51.442;7.016;2023-07-13T09:47:39;32.30;1.00
1429;DHT22;708;51.442;7.016;2023-07-13T09:50:10;32.30;1.00
1429;DHT22;708;51.442;7.016;2023-07-13T09:52:44;32.20;1.00
1429;DHT22;708;51.442;7.016;2023-07-13T09:55:34;32.00;1.00
1429;DHT22;708;51.442;7.016;2023-07-13T09:58:09;31.60;1.00
1429;DHT22;708;51.442;7.016;2023-07-13T10:00:37;31.10;1.00
1429;DHT22;708;51.442;7.016;2023-07-13T10:03:16;30.70;1.00
1429;DHT22;708;51.442;7.016;2023-07-13T10:05:46;30.90;1.00
1429;DHT22;708;51.442;7.016;2023-07-13T10:08:25;31.10;1.00
1429;DHT22;708;51.442;7.016;2023-07-13T10:10:58;30.90;1.00
1429;DHT22;708;51.442;7.016;2023-07-13T10:13:32;31.00;1.00
1429;DHT22;708;51.442;7.016;2023-07-13T10:15:59;31.70;1.00
1429;DHT22;708;51.442;7.016;2023-07-13T10:18:29;32.00;1.00
1429;DHT22;708;51.442;7.016;2023-07-13T10:21:13;31.80;1.00
1429;DHT22;708;51.442;7.016;2023-07-13T10:23:40;31.90;1.00
1429;DHT22;708;51.442;7.016;2023-07-13T10:28:40;30.40;1.00
1429;DHT22;708;51.442;7.016;2023-07-13T10:31:13;29.70;1.00
1429;DHT22;708;51.442;7.016;2023-07-13T10:33:40;29.80;1.00
1429;DHT22;708;51.442;7.016;2023-07-13T10:36:14;30.10;1.00
1429;DHT22;708;51.442;7.016;2023-07-13T10:38:43;30.00;1.00
1429;DHT22;708;51.442;7.016;2023-07-13T10:41:15;30.00;1.00
1429;DHT22;708;51.442;7.016;2023-07-13T10:43:45;30.20;1.00
1429;DHT22;708;51.442;7.016;2023-07-13T10:46:16;30.20;1.00
1429;DHT22;708;51.442;7.016;2023-07-13T10:48:48;30.10;1.00
1429;DHT22;708;51.442;7.016;2023-07-13T10:51:18;30.00;1.00
1429;DHT22;708;51.442;7.016;2023-07-13T10:53:47;29.70;1.00
1429;DHT22;708;51.442;7.016;2023-07-13T10:56:22;29.60;1.00
1429;DHT22;708;51.442;7.016;2023-07-13T10:59:02;29.40;1.00
1429;DHT22;708;51.442;7.016;2023-07-13T11:01:40;29.10;1.00
1429;DHT22;708;51.442;7.016;2023-07-13T11:04:12;28.80;1.00
1429;DHT22;708;51.442;7.016;2023-07-13T11:06:50;28.50;1.00
1429;DHT22;708;51.442;7.016;2023-07-13T11:09:32;28.20;1.00
1429;DHT22;708;51.442;7.016;2023-07-13T11:12:00;28.00;1.00
1429;DHT22;708;51.442;7.016;2023-07-13T11:14:35;27.70;1.00
1429;DHT22;708;51.442;7.016;2023-07-13T11:17:29;27.50;1.00
1429;DHT22;708;51.442;7.016;2023-07-13T11:20:18;27.40;1.00
1429;DHT22;708;51.442;7.016;2023-07-13T11:22:48;27.40;1.00
1429;DHT22;708;51.442;7.016;2023-07-13T11:25:29;27.40;1.00
1429;DHT22;708;51.442;7.016;2023-07-13T11:28:14;27.20;1.00
1429;DHT22;708;51.442;7.016;2023-07-13T11:30:44;26.90;1.00
1429;DHT22;708;51.442;7.016;2023-07-13T11:33:16;26.90;1.00
1429;DHT22;708;51.442;7.016;2023-07-13T11:35:48;26.90;1.00
1429;DHT22;708;51.442;7.016;2023-07-13T11:38:19;26.80;1.00
1429;DHT22;708;51.442;7.016;2023-07-13T11:40:48;26.60;1.00
1429;DHT22;708;51.442;7.016;2023-07-13T11:43:16;26.60;1.00
1429;DHT22;708;51.442;7.016;2023-07-13T11:45:44;26.50;1.00
1429;DHT22;708;51.442;7.016;2023-07-13T11:48:23;26.50;1.00
1429;DHT22;708;51.442;7.016;2023-07-13T11:50:52;26.50;1.00
1429;DHT22;708;51.442;7.016;2023-07-13T11:53:21;26.50;1.00
1429;DHT22;708;51.442;7.016;2023-07-13T11:55:48;26.50;1.00
1429;DHT22;708;51.442;7.016;2023-07-13T11:58:19;26.40;1.00
1429;DHT22;708;51.442;7.016;2023-07-13T12:00:48;26.50;1.00
1429;DHT22;708;51.442;7.016;2023-07-13T12:03:18;26.60;1.00
1429;DHT22;708;51.442;7.016;2023-07-13T12:05:59;26.60;1.00
1429;DHT22;708;51.442;7.016;2023-07-13T12:08:27;26.80;1.00
1429;DHT22;708;51.442;7.016;2023-07-13T12:11:00;26.90;1.00
1429;DHT22;708;51.442;7.016;2023-07-13T12:13:28;26.90;1.00
1429;DHT22;708;51.442;7.016;2023-07-13T12:15:56;26.90;1.00
1429;DHT22;708;51.442;7.016;2023-07-13T12:18:29;27.10;1.00
1429;DHT22;708;51.442;7.016;2023-07-13T12:20:58;27.30;1.00
1429;DHT22;708;51.442;7.016;2023-07-13T12:23:29;27.30;1.00
1429;DHT22;708;51.442;7.016;2023-07-13T12:25:58;27.20;1.00
1429;DHT22;708;51.442;7.016;2023-07-13T12:28:33;27.30;1.00
1429;DHT22;708;51.442;7.016;2023-07-13T12:31:01;27.20;1.00
1429;DHT22;708;51.442;7.016;2023-07-13T12:33:29;27.40;1.00
1429;DHT22;708;51.442;7.016;2023-07-13T12:36:00;27.60;1.00
1429;DHT22;708;51.442;7.016;2023-07-13T12:38:30;27.90;1.00
1429;DHT22;708;51.442;7.016;2023-07-13T12:40:58;27.90;1.00
1429;DHT22;708;51.442;7.016;2023-07-13T12:43:26;27.70;1.00
1429;DHT22;708;51.442;7.016;2023-07-13T12:45:58;27.60;1.00
1429;DHT22;708;51.442;7.016;2023-07-13T12:48:25;27.50;1.00
1429;DHT22;708;51.442;7.016;2023-07-13T12:50:53;27.60;1.00
1429;DHT22;708;51.442;7.016;2023-07-13T12:53:22;27.70;1.00
1429;DHT22;708;51.442;7.016;2023-07-13T12:55:53;27.60;1.00
1429;DHT22;708;51.442;7.016;2023-07-13T12:58:26;27.70;1.00
1429;DHT22;708;51.442;7.016;2023-07-13T13:00:55;27.60;1.00
1429;DHT22;708;51.442;7.016;2023-07-13T13:03:26;27.50;1.00
1429;DHT22;708;51.442;7.016;2023-07-13T13:05:58;27.30;1.00
1429;DHT22;708;51.442;7.016;2023-07-13T13:08:29;27.00;1.00
1429;DHT22;708;51.442;7.016;2023-07-13T13:10:57;26.80;1.00
1429;DHT22;708;51.442;7.016;2023-07-13T13:13:24;26.50;1.00
1429;DHT22;708;51.442;7.016;2023-07-13T13:15:51;26.30;1.00
1429;DHT22;708;51.442;7.016;2023-07-13T13:18:20;26.10;1.00
1429;DHT22;708;51.442;7.016;2023-07-13T13:20:48;25.80;1.00
1429;DHT22;708;51.442;7.016;2023-07-13T13:23:16;25.50;1.00
1429;DHT22;708;51.442;7.016;2023-07-13T13:25:44;25.10;14.40
1429;DHT22;708;51.442;7.016;2023-07-13T13:28:17;24.70;99.90
1429;DHT22;708;51.442;7.016;2023-07-13T13:30:46;24.50;99.90
1429;DHT22;708;51.442;7.016;2023-07-13T13:33:15;24.30;99.90
1429;DHT22;708;51.442;7.016;2023-07-13T13:35:43;24.20;99.90
1429;DHT22;708;51.442;7.016;2023-07-13T13:38:14;24.20;99.90
1429;DHT22;708;51.442;7.016;2023-07-13T13:40:42;24.30;99.90
1429;DHT22;708;51.442;7.016;2023-07-13T13:43:16;24.50;99.90
1429;DHT22;708;51.442;7.016;2023-07-13T13:45:44;24.50;99.90
1429;DHT22;708;51.442;7.016;2023-07-13T13:48:15;24.60;99.90
1429;DHT22;708;51.442;7.016;2023-07-13T13:50:44;24.90;94.20
1429;DHT22;708;51.442;7.016;2023-07-13T13:53:11;25.30;72.30
1429;DHT22;708;51.442;7.016;2023-07-13T13:55:39;25.70;70.00
1429;DHT22;708;51.442;7.016;2023-07-13T13:58:08;26.30;55.40
1429;DHT22;708;51.442;7.016;2023-07-13T14:00:40;26.60;39.90
1429;DHT22;708;51.442;7.016;2023-07-13T14:03:14;26.90;30.40
1429;DHT22;708;51.442;7.016;2023-07-13T14:05:42;27.30;25.00
1429;DHT22;708;51.442;7.016;2023-07-13T14:08:13;27.40;18.90
1429;DHT22;708;51.442;7.016;2023-07-13T14:10:40;26.90;20.20
1429;DHT22;708;51.442;7.016;2023-07-13T14:13:15;26.30;20.80
1429;DHT22;708;51.442;7.016;2023-07-13T14:15:45;25.90;25.40
1429;DHT22;708;51.442;7.016;2023-07-13T14:18:12;25.60;32.50
1429;DHT22;708;51.442;7.016;2023-07-13T14:20:43;25.20;42.50
1429;DHT22;708;51.442;7.016;2023-07-13T14:23:11;24.90;62.70
1429;DHT22;708;51.442;7.016;2023-07-13T14:25:38;24.70;99.90
1429;DHT22;708;51.442;7.016;2023-07-13T14:28:19;24.50;99.90
1429;DHT22;708;51.442;7.016;2023-07-13T14:30:48;24.60;99.90
1429;DHT22;708;51.442;7.016;2023-07-13T14:33:15;24.50;99.90
1429;DHT22;708;51.442;7.016;2023-07-13T14:35:42;24.50;99.90
1429;DHT22;708;51.442;7.016;2023-07-13T14:38:13;24.60;99.90
1429;DHT22;708;51.442;7.016;2023-07-13T14:40:40;24.50;99.90
1429;DHT22;708;51.442;7.016;2023-07-13T14:43:10;24.50;99.90
1429;DHT22;708;51.442;7.016;2023-07-13T14:45:40;24.40;99.90
1429;DHT22;708;51.442;7.016;2023-07-13T14:48:17;24.20;99.90
1429;DHT22;708;51.442;7.016;2023-07-13T14:50:44;24.10;99.90
1429;DHT22;708;51.442;7.016;2023-07-13T14:53:13;24.10;99.90
1429;DHT22;708;51.442;7.016;2023-07-13T14:55:40;24.30;99.90
1429;DHT22;708;51.442;7.016;2023-07-13T14:58:08;24.40;99.90
1429;DHT22;708;51.442;7.016;2023-07-13T15:00:35;24.40;99.90
1429;DHT22;708;51.442;7.016;2023-07-13T15:03:03;24.50;99.90
1429;DHT22;708;51.442;7.016;2023-07-13T15:05:34;24.60;99.90
1429;DHT22;708;51.442;7.016;2023-07-13T15:08:02;24.80;99.90
1429;DHT22;708;51.442;7.016;2023-07-13T15:10:31;25.00;99.90
1429;DHT22;708;51.442;7.016;2023-07-13T15:12:59;25.20;99.90
1429;DHT22;708;51.442;7.016;2023-07-13T15:15:29;25.20;99.90
1429;DHT22;708;51.442;7.016;2023-07-13T15:17:56;25.10;99.90
1429;DHT22;708;51.442;7.016;2023-07-13T15:20:27;25.20;99.90
1429;DHT22;708;51.442;7.016;2023-07-13T15:22:56;25.20;99.90
1429;DHT22;708;51.442;7.016;2023-07-13T15:25:25;25.20;99.90
1429;DHT22;708;51.442;7.016;2023-07-13T15:27:53;25.10;99.90
1429;DHT22;708;51.442;7.016;2023-07-13T15:30:21;25.10;99.90
1429;DHT22;708;51.442;7.016;2023-07-13T15:32:48;25.10;99.90
1429;DHT22;708;51.442;7.016;2023-07-13T15:35:17;25.10;99.90
1429;DHT22;708;51.442;7.016;2023-07-13T15:37:44;25.00;99.90
1429;DHT22;708;51.442;7.016;2023-07-13T15:40:14;24.80;99.90
1429;DHT22;708;51.442;7.016;2023-07-13T15:42:42;24.30;1.00
1429;DHT22;708;51.442;7.016;2023-07-13T15:45:20;23.60;99.90
1429;DHT22;708;51.442;7.016;2023-07-13T15:47:48;22.90;99.90
1429;DHT22;708;51.442;7.016;2023-07-13T15:50:17;22.20;99.90
1429;DHT22;708;51.442;7.016;2023-07-13T15:52:46;21.80;99.90
1429;DHT22;708;51.442;7.016;2023-07-13T15:55:18;21.50;1.00
1429;DHT22;708;51.442;7.016;2023-07-13T15:57:47;21.30;99.90
1429;DHT22;708;51.442;7.016;2023-07-13T16:00:20;21.20;99.90
1429;DHT22;708;51.442;7.016;2023-07-13T16:02:47;21.10;80.80
1429;DHT22;708;51.442;7.016;2023-07-13T16:05:15;21.20;99.90
1429;DHT22;708;51.442;7.016;2023-07-13T16:07:43;21.20;99.90
1429;DHT22;708;51.442;7.016;2023-07-13T16:10:15;21.40;1.00
1429;DHT22;708;51.442;7.016;2023-07-13T16:12:42;21.60;51.40
1429;DHT22;708;51.442;7.016;2023-07-13T16:15:13;21.80;99.90
1429;DHT22;708;51.442;7.016;2023-07-13T16:17:41;22.00;99.90
1429;DHT22;708;51.442;7.016;2023-07-13T16:20:09;22.20;99.90
1429;DHT22;708;51.442;7.016;2023-07-13T16:22:38;22.40;99.90
1429;DHT22;708;51.442;7.016;2023-07-13T16:25:15;22.50;99.90
1429;DHT22;708;51.442;7.016;2023-07-13T16:27:43;22.60;99.90
1429;DHT22;708;51.442;7.016;2023-07-13T16:30:15;22.70;52.90
1429;DHT22;708;51.442;7.016;2023-07-13T16:32:47;22.70;1.00
1429;DHT22;708;51.442;7.016;2023-07-13T16:35:19;22.80;1.00
1429;DHT22;708;51.442;7.016;2023-07-13T16:37:46;22.80;1.00
1429;DHT22;708;51.442;7.016;2023-07-13T16:40:23;22.80;1.00
1429;DHT22;708;51.442;7.016;2023-07-13T16:42:50;22.90;1.00
1429;DHT22;708;51.442;7.016;2023-07-13T16:45:19;23.00;1.00
1429;DHT22;708;51.442;7.016;2023-07-13T16:47:49;23.20;1.00
1429;DHT22;708;51.442;7.016;2023-07-13T16:50:18;23.30;1.00